Time;durP1;ratioP1;P1;durP2;ratioP2;P2;SDS_P1;SDS_P2;PMS_P1;PMS_P2;Temp;Humidity;BMP_temperature;BMP_pressure;BME280_temperature;BME280_humidity;BME280_pressure;Samples;Min_cycle;Max_cycle;Signal;HPM_P1;HPM_P2
2023/04/06 00:00:56;;;;;;;5.68;5.28;;;6.10;99.90;;;;;;5104040;28;20198;-74
2023/04/06 00:03:23;;;;;;;5.65;5.13;;;6.10;99.90;;;;;;5096183;28;20213;-75
2023/04/06 00:05:50;;;;;;;6.53;4.82;;;6.10;99.90;;;;;;5088191;28;20243;-75
2023/04/06 00:08:21;;;;;;;5.78;5.18;;;6.10;99.90;;;;;;5085727;28;20537;-75
2023/04/06 00:10:48;;;;;;;6.40;5.80;;;6.10;99.90;;;;;;5085449;28;20629;-74
2023/04/06 00:13:15;;;;;;;6.10;5.50;;;6.00;99.90;;;;;;5085556;28;20205;-75
2023/04/06 00:15:42;;;;;;;7.70;7.00;;;6.00;99.90;;;;;;5089921;28;20679;-75
2023/04/06 00:18:09;;;;;;;5.68;5.18;;;5.90;99.90;;;;;;5086435;28;20192;-75
2023/04/06 00:20:36;;;;;;;5.82;5.38;;;5.90;99.90;;;;;;5080791;28;20784;-75
2023/04/06 00:23:03;;;;;;;5.90;5.40;;;6.00;99.90;;;;;;5083984;28;20271;-75
2023/04/06 00:25:32;;;;;;;6.05;5.45;;;6.00;99.90;;;;;;5082295;28;20247;-75
2023/04/06 00:27:59;;;;;;;6.28;5.78;;;6.10;99.90;;;;;;5097223;28;20201;-75
2023/04/06 00:30:26;;;;;;;5.30;4.88;;;6.10;99.90;;;;;;5085814;28;20210;-74
2023/04/06 00:32:53;;;;;;;5.95;5.45;;;6.00;99.90;;;;;;5080293;28;20373;-75
2023/04/06 00:35:20;;;;;;;6.53;6.03;;;6.00;99.90;;;;;;5082084;28;20221;-75
2023/04/06 00:37:48;;;;;;;6.25;5.65;;;5.90;99.90;;;;;;5084282;28;20243;-74
2023/04/06 00:40:16;;;;;;;5.90;5.40;;;5.90;99.90;;;;;;5084770;28;20283;-74
2023/04/06 00:42:44;;;;;;;5.72;5.32;;;5.90;99.90;;;;;;5085329;28;20222;-75
2023/04/06 00:45:11;;;;;;;5.97;5.47;;;6.00;99.90;;;;;;5082385;28;20207;-76
2023/04/06 00:47:38;;;;;;;5.20;4.80;;;6.00;99.90;;;;;;5083945;28;20202;-75
2023/04/06 00:50:07;;;;;;;5.65;5.25;;;6.00;99.90;;;;;;5082495;28;20664;-75
2023/04/06 00:52:35;;;;;;;5.40;4.90;;;6.00;99.90;;;;;;5081435;28;20243;-75
2023/04/06 00:55:02;;;;;;;5.63;5.22;;;6.00;99.90;;;;;;5080748;28;20279;-75
2023/04/06 00:57:29;;;;;;;5.70;5.20;;;6.00;99.90;;;;;;5083838;28;20205;-75
2023/04/06 00:59:58;;;;;;;5.00;4.50;;;5.90;99.90;;;;;;5080250;28;20201;-75
2023/04/06 01:02:25;;;;;;;5.88;5.38;;;5.80;99.90;;;;;;5082082;28;20275;-75
2023/04/06 01:04:53;;;;;;;5.35;4.93;;;5.80;99.90;;;;;;5085541;28;20624;-75
2023/04/06 01:07:20;;;;;;;5.55;5.07;;;5.80;99.90;;;;;;5085988;28;20289;-74
2023/04/06 01:09:47;;;;;;;6.25;5.70;;;5.70;99.90;;;;;;5084319;28;20216;-76
2023/04/06 01:12:14;;;;;;;6.00;5.50;;;5.70;99.90;;;;;;5082214;28;20217;-74
2023/04/06 01:14:41;;;;;;;6.88;6.22;;;5.60;99.90;;;;;;5082598;28;20198;-74
2023/04/06 01:17:10;;;;;;;5.47;5.07;;;5.50;99.90;;;;;;5086933;28;20210;-74
2023/04/06 01:19:37;;;;;;;5.47;4.80;;;5.40;99.90;;;;;;5083212;28;20701;-75
2023/04/06 01:22:04;;;;;;;5.60;5.20;;;5.40;99.90;;;;;;5082212;28;20641;-74
2023/04/06 01:24:33;;;;;;;5.80;5.20;;;5.40;99.90;;;;;;5089672;28;20225;-75
2023/04/06 01:27:01;;;;;;;6.10;5.50;;;5.30;99.90;;;;;;5097703;28;20193;-75
2023/04/06 01:29:28;;;;;;;6.13;5.68;;;5.30;99.90;;;;;;5084317;28;20228;-75
2023/04/06 01:31:55;;;;;;;5.38;4.97;;;5.20;99.90;;;;;;5083820;28;20217;-75
2023/04/06 01:34:22;;;;;;;5.45;4.95;;;5.20;99.90;;;;;;5086875;28;20205;-76
2023/04/06 01:36:50;;;;;;;5.53;5.03;;;5.20;99.90;;;;;;5084391;28;20206;-73
2023/04/06 01:39:17;;;;;;;5.65;5.15;;;5.20;99.90;;;;;;5083704;28;20281;-74
2023/04/06 01:41:46;;;;;;;5.30;4.90;;;5.20;99.90;;;;;;5084268;28;20221;-74
2023/04/06 01:44:14;;;;;;;6.47;5.88;;;5.10;99.90;;;;;;5083504;28;20725;-74
2023/04/06 01:46:41;;;;;;;5.75;5.30;;;5.10;99.90;;;;;;5078178;28;20671;-75
2023/04/06 01:49:08;;;;;;;6.20;5.70;;;5.00;99.90;;;;;;5084681;28;20202;-73
2023/04/06 01:51:35;;;;;;;5.93;5.43;;;5.00;99.90;;;;;;5080462;28;20221;-73
2023/04/06 01:54:02;;;;;;;6.57;6.05;;;5.00;99.90;;;;;;5084640;28;20224;-73
2023/04/06 01:56:29;;;;;;;6.32;5.60;;;5.00;99.90;;;;;;5084723;28;20189;-73
2023/04/06 01:58:58;;;;;;;5.75;5.25;;;5.00;99.90;;;;;;5080343;28;20284;-74
2023/04/06 02:01:25;;;;;;;6.57;5.97;;;4.90;99.90;;;;;;5081132;28;20222;-74
2023/04/06 02:03:52;;;;;;;6.40;5.85;;;4.90;99.90;;;;;;5080843;28;20226;-73
2023/04/06 02:06:19;;;;;;;6.47;5.97;;;4.80;99.90;;;;;;5082034;28;20255;-76
2023/04/06 02:08:46;;;;;;;5.80;5.38;;;4.70;99.90;;;;;;5081078;28;20265;-74
2023/04/06 02:11:13;;;;;;;5.80;5.30;;;4.70;99.90;;;;;;5082070;28;20217;-74
2023/04/06 02:13:40;;;;;;;6.68;6.18;;;4.70;99.90;;;;;;5081928;28;20193;-74
2023/04/06 02:16:08;;;;;;;6.40;5.80;;;4.70;99.90;;;;;;5084570;28;20225;-75
2023/04/06 02:18:35;;;;;;;6.15;5.65;;;4.70;99.90;;;;;;5080570;28;20198;-74
2023/04/06 02:21:02;;;;;;;6.38;5.88;;;4.60;99.90;;;;;;5080590;28;20221;-75
2023/04/06 02:23:29;;;;;;;6.25;5.75;;;4.60;99.90;;;;;;5076357;28;20279;-74
2023/04/06 02:25:56;;;;;;;6.22;5.72;;;4.60;99.90;;;;;;5095442;28;20193;-74
2023/04/06 02:28:24;;;;;;;6.78;6.18;;;4.60;99.90;;;;;;5082386;28;20613;-74
2023/04/06 02:30:51;;;;;;;7.55;6.60;;;4.50;99.90;;;;;;5082080;28;20296;-72
2023/04/06 02:33:19;;;;;;;6.68;6.18;;;4.50;99.90;;;;;;5077353;28;20285;-74
2023/04/06 02:35:46;;;;;;;6.55;6.05;;;4.40;99.90;;;;;;5097581;28;20190;-74
2023/04/06 02:38:13;;;;;;;9.57;6.38;;;4.30;99.90;;;;;;5099425;28;20198;-74
2023/04/06 02:40:40;;;;;;;7.85;5.97;;;4.20;99.90;;;;;;5086628;28;20198;-73
2023/04/06 02:43:07;;;;;;;7.35;6.72;;;4.20;99.90;;;;;;5079591;28;20202;-73
2023/04/06 02:45:34;;;;;;;6.03;5.53;;;4.10;99.90;;;;;;5084898;28;20201;-74
2023/04/06 02:48:01;;;;;;;6.78;6.13;;;4.10;99.90;;;;;;5079921;28;20216;-74
2023/04/06 02:50:30;;;;;;;6.53;5.93;;;4.10;99.90;;;;;;5082438;28;20737;-76
2023/04/06 02:52:57;;;;;;;7.00;6.45;;;4.10;99.90;;;;;;5079846;28;20274;-75
2023/04/06 02:55:24;;;;;;;8.23;7.43;;;4.00;99.90;;;;;;5081121;28;20194;-75
2023/04/06 02:57:51;;;;;;;7.95;7.15;;;4.00;99.90;;;;;;5084553;28;20671;-75
2023/04/06 03:00:18;;;;;;;7.75;7.10;;;4.00;99.90;;;;;;5083264;28;20198;-75
2023/04/06 03:02:45;;;;;;;8.77;7.35;;;4.00;99.90;;;;;;5077032;28;20225;-73
2023/04/06 03:05:12;;;;;;;7.65;6.95;;;4.00;99.90;;;;;;5079043;28;20627;-73
2023/04/06 03:07:41;;;;;;;6.72;6.13;;;3.90;99.90;;;;;;5082434;28;20205;-74
2023/04/06 03:10:09;;;;;;;8.07;7.38;;;4.00;99.90;;;;;;5077492;28;20193;-74
2023/04/06 03:12:36;;;;;;;7.75;6.93;;;3.90;99.90;;;;;;5080261;28;20246;-74
2023/04/06 03:15:03;;;;;;;7.78;7.07;;;3.90;99.90;;;;;;5083606;28;20251;-74
2023/04/06 03:17:30;;;;;;;7.78;7.18;;;3.90;99.90;;;;;;5082222;28;20205;-73
2023/04/06 03:19:57;;;;;;;8.02;7.05;;;3.80;99.90;;;;;;5079066;28;20201;-73
2023/04/06 03:22:24;;;;;;;8.05;6.68;;;3.80;99.90;;;;;;5081311;28;20783;-73
2023/04/06 03:24:53;;;;;;;6.53;6.03;;;3.80;99.90;;;;;;5092357;28;20214;-73
2023/04/06 03:27:20;;;;;;;6.70;6.18;;;3.90;99.90;;;;;;5084551;28;20206;-73
2023/04/06 03:29:47;;;;;;;7.28;6.57;;;3.90;99.90;;;;;;5086617;28;20243;-73
2023/04/06 03:32:14;;;;;;;6.22;5.72;;;4.00;99.90;;;;;;5079409;28;20209;-73
2023/04/06 03:34:41;;;;;;;7.00;6.40;;;4.00;99.90;;;;;;5082329;28;20205;-73
2023/04/06 03:37:08;;;;;;;7.07;6.38;;;4.00;99.90;;;;;;5082848;28;20255;-74
2023/04/06 03:39:35;;;;;;;6.07;5.57;;;4.00;99.90;;;;;;5084396;28;20198;-73
2023/04/06 03:42:04;;;;;;;6.57;6.05;;;4.00;99.90;;;;;;5086626;28;20226;-75
2023/04/06 03:44:31;;;;;;;6.78;6.20;;;4.00;99.90;;;;;;5077868;28;20240;-74
2023/04/06 03:46:58;;;;;;;7.05;6.45;;;4.00;99.90;;;;;;5085574;28;20198;-73
2023/04/06 03:49:26;;;;;;;6.95;6.35;;;4.00;99.90;;;;;;5085263;28;20570;-73
2023/04/06 03:51:54;;;;;;;7.25;6.63;;;4.10;99.90;;;;;;5084308;28;20406;-73
2023/04/06 03:54:21;;;;;;;7.32;6.65;;;4.00;99.90;;;;;;5087334;28;21163;-73
2023/04/06 03:56:48;;;;;;;7.60;6.80;;;3.90;99.90;;;;;;5085958;28;20198;-73
2023/04/06 03:59:17;;;;;;;6.65;6.05;;;3.80;99.90;;;;;;5086792;28;20706;-73
2023/04/06 04:01:44;;;;;;;8.07;7.28;;;3.80;99.90;;;;;;5082164;28;20217;-73
2023/04/06 04:04:11;;;;;;;8.05;6.82;;;3.70;99.90;;;;;;5081987;28;20223;-74
2023/04/06 04:06:38;;;;;;;8.18;7.47;;;3.70;99.90;;;;;;5081159;28;20201;-74
2023/04/06 04:09:05;;;;;;;6.22;5.72;;;3.70;99.90;;;;;;5084088;28;20224;-73
2023/04/06 04:11:32;;;;;;;7.28;6.60;;;3.70;99.90;;;;;;5086119;28;20234;-74
2023/04/06 04:13:59;;;;;;;7.65;6.95;;;3.60;99.90;;;;;;5081395;28;20729;-74
2023/04/06 04:16:28;;;;;;;6.95;6.35;;;3.60;99.90;;;;;;5084468;28;20209;-74
2023/04/06 04:18:55;;;;;;;7.25;6.55;;;3.50;99.90;;;;;;5086162;28;20206;-74
2023/04/06 04:21:22;;;;;;;7.38;6.75;;;3.50;99.90;;;;;;5085415;28;20229;-74
2023/04/06 04:23:49;;;;;;;7.03;6.40;;;3.50;99.90;;;;;;5098029;28;22019;-74
2023/04/06 04:26:16;;;;;;;7.35;6.65;;;3.50;99.90;;;;;;5087014;28;20193;-75
2023/04/06 04:28:43;;;;;;;6.93;6.32;;;3.50;99.90;;;;;;5086647;28;20866;-74
2023/04/06 04:31:10;;;;;;;8.02;7.22;;;3.50;99.90;;;;;;5082919;28;20205;-73
2023/04/06 04:33:39;;;;;;;6.75;6.15;;;3.50;99.90;;;;;;5082843;28;20198;-76
2023/04/06 04:36:06;;;;;;;6.90;6.30;;;3.50;99.90;;;;;;5084406;28;20209;-76
2023/04/06 04:38:33;;;;;;;7.32;6.63;;;3.50;99.90;;;;;;5084530;28;20813;-73
2023/04/06 04:41:00;;;;;;;6.57;6.07;;;3.50;99.90;;;;;;5084856;28;20225;-74
2023/04/06 04:43:27;;;;;;;6.47;5.97;;;3.50;99.90;;;;;;5082782;28;20249;-73
2023/04/06 04:45:54;;;;;;;6.63;6.13;;;3.60;99.90;;;;;;5079715;28;20224;-74
2023/04/06 04:48:21;;;;;;;6.55;6.05;;;3.60;99.90;;;;;;5084128;28;20244;-76
2023/04/06 04:50:50;;;;;;;6.97;6.38;;;3.60;99.90;;;;;;5083959;28;20193;-74
2023/04/06 04:53:17;;;;;;;6.57;6.07;;;3.60;99.90;;;;;;5081313;28;20201;-73
2023/04/06 04:55:44;;;;;;;7.95;7.25;;;3.60;99.90;;;;;;5079388;28;20213;-73
2023/04/06 04:58:15;;;;;;;7.65;6.82;;;3.60;99.90;;;;;;5081151;28;20635;-74
2023/04/06 05:00:42;;;;;;;7.47;6.85;;;3.60;99.90;;;;;;5084729;28;20201;-75
2023/04/06 05:03:09;;;;;;;7.55;6.90;;;3.60;99.90;;;;;;5082856;28;20266;-74
2023/04/06 05:05:36;;;;;;;6.65;6.15;;;3.60;99.90;;;;;;5090208;28;20763;-74
2023/04/06 05:08:05;;;;;;;6.80;6.20;;;3.60;99.90;;;;;;5099666;28;20217;-76
2023/04/06 05:10:32;;;;;;;6.57;6.05;;;3.60;99.90;;;;;;5091004;28;20251;-74
2023/04/06 05:12:59;;;;;;;6.07;5.57;;;3.60;99.90;;;;;;5085629;28;20232;-74
2023/04/06 05:15:26;;;;;;;6.63;6.03;;;3.70;99.90;;;;;;5083530;28;20202;-75
2023/04/06 05:17:53;;;;;;;6.90;6.30;;;3.70;99.90;;;;;;5084494;28;20198;-76
2023/04/06 05:20:21;;;;;;;6.57;5.97;;;3.70;99.90;;;;;;5085139;28;20194;-75
2023/04/06 05:22:48;;;;;;;6.32;5.80;;;3.90;99.90;;;;;;5103001;28;20233;-75
2023/04/06 05:25:16;;;;;;;6.47;5.88;;;4.10;99.90;;;;;;5083366;28;20218;-75
2023/04/06 05:27:43;;;;;;;6.53;6.03;;;4.30;99.90;;;;;;5080702;28;20223;-75
2023/04/06 05:30:10;;;;;;;6.43;5.93;;;4.50;99.90;;;;;;5083931;28;20251;-75
2023/04/06 05:32:37;;;;;;;7.22;6.57;;;4.70;99.90;;;;;;5081639;28;20275;-75
2023/04/06 05:35:05;;;;;;;7.57;6.75;;;5.00;99.90;;;;;;5082306;28;20211;-76
2023/04/06 05:37:32;;;;;;;7.05;6.45;;;5.20;99.90;;;;;;5082579;28;20201;-74
2023/04/06 05:40:00;;;;;;;7.82;7.15;;;5.30;99.90;;;;;;5083760;28;20671;-75
2023/04/06 05:42:28;;;;;;;7.75;7.15;;;5.50;99.90;;;;;;5083326;28;20222;-75
2023/04/06 05:44:56;;;;;;;7.80;7.10;;;5.70;99.90;;;;;;5083221;28;20677;-75
2023/04/06 05:47:23;;;;;;;7.90;7.20;;;5.90;99.90;;;;;;5079276;28;20227;-75
2023/04/06 05:49:50;;;;;;;8.93;7.78;;;6.10;99.90;;;;;;5083622;28;20202;-75
2023/04/06 05:52:18;;;;;;;7.55;6.85;;;6.40;99.90;;;;;;5081572;28;20283;-75
2023/04/06 05:54:45;;;;;;;8.18;7.47;;;6.70;99.90;;;;;;5082914;28;20194;-75
2023/04/06 05:57:12;;;;;;;9.18;8.30;;;6.90;99.90;;;;;;5078938;28;20206;-75
2023/04/06 05:59:40;;;;;;;10.13;8.93;;;7.20;99.90;;;;;;5084642;28;20197;-75
2023/04/06 06:02:07;;;;;;;9.25;8.25;;;7.40;99.90;;;;;;5087097;28;20278;-74
2023/04/06 06:04:34;;;;;;;10.82;7.88;;;7.50;99.90;;;;;;5085812;28;20217;-75
2023/04/06 06:07:01;;;;;;;8.43;7.60;;;7.60;99.90;;;;;;5083483;28;20209;-75
2023/04/06 06:09:28;;;;;;;7.93;7.15;;;7.80;99.90;;;;;;5081871;28;20214;-75
2023/04/06 06:11:55;;;;;;;9.40;8.35;;;7.90;99.90;;;;;;5082205;28;20743;-75
2023/04/06 06:14:22;;;;;;;8.13;7.43;;;8.10;99.90;;;;;;5080635;28;20209;-75
2023/04/06 06:16:51;;;;;;;8.50;7.68;;;8.40;99.90;;;;;;5083069;28;20208;-76
2023/04/06 06:19:18;;;;;;;8.20;7.40;;;8.60;99.90;;;;;;5080660;28;20207;-75
2023/04/06 06:21:45;;;;;;;9.55;8.63;;;8.80;99.90;;;;;;5094304;28;20280;-76
2023/04/06 06:24:12;;;;;;;9.50;7.90;;;8.80;99.90;;;;;;5083120;28;20202;-75
2023/04/06 06:26:39;;;;;;;11.18;8.88;;;8.60;99.90;;;;;;5081623;28;20652;-76
2023/04/06 06:29:07;;;;;;;9.73;8.40;;;8.60;99.90;;;;;;5084063;28;20240;-74
2023/04/06 06:31:35;;;;;;;10.23;7.78;;;8.60;99.90;;;;;;5080673;28;20707;-74
2023/04/06 06:34:03;;;;;;;12.20;8.40;;;8.70;99.90;;;;;;5081874;28;20206;-75
2023/04/06 06:36:31;;;;;;;8.52;7.80;;;8.90;99.90;;;;;;5080742;28;20202;-75
2023/04/06 06:39:00;;;;;;;9.57;7.90;;;9.10;99.90;;;;;;5079952;28;21441;-75
2023/04/06 06:41:27;;;;;;;8.90;8.05;;;9.20;99.90;;;;;;5078157;28;20250;-75
2023/04/06 06:43:54;;;;;;;9.25;8.23;;;9.40;99.90;;;;;;5081601;28;20198;-76
2023/04/06 06:46:21;;;;;;;7.90;7.15;;;9.50;99.90;;;;;;5077775;28;20210;-75
2023/04/06 06:48:48;;;;;;;8.48;7.55;;;9.60;99.90;;;;;;5084299;28;20197;-75
2023/04/06 06:51:17;;;;;;;11.18;8.40;;;9.60;99.90;;;;;;5078164;28;20220;-76
2023/04/06 06:53:44;;;;;;;9.27;8.35;;;9.80;99.90;;;;;;5077063;28;20198;-77
2023/04/06 06:56:11;;;;;;;9.55;8.55;;;9.80;99.90;;;;;;5083093;28;20243;-76
2023/04/06 06:58:38;;;;;;;8.90;8.10;;;10.00;99.90;;;;;;5084752;28;20201;-75
2023/04/06 07:01:06;;;;;;;9.95;8.32;;;10.10;99.90;;;;;;5082387;28;20268;-75
2023/04/06 07:03:33;;;;;;;10.90;9.05;;;10.20;99.90;;;;;;5081902;28;20201;-75
2023/04/06 07:06:00;;;;;;;9.35;8.45;;;10.20;99.90;;;;;;5080818;28;20275;-75
2023/04/06 07:08:29;;;;;;;9.98;8.40;;;10.30;99.90;;;;;;5078427;28;20213;-77
2023/04/06 07:10:56;;;;;;;9.35;8.45;;;10.50;99.90;;;;;;5080984;28;20202;-75
2023/04/06 07:13:23;;;;;;;10.10;8.50;;;10.60;99.90;;;;;;5080868;28;20225;-76
2023/04/06 07:15:51;;;;;;;10.50;8.93;;;10.70;99.90;;;;;;5082138;28;20675;-75
2023/04/06 07:18:18;;;;;;;9.32;8.43;;;10.90;99.90;;;;;;5080853;28;20201;-76
2023/04/06 07:20:45;;;;;;;15.38;8.82;;;10.90;99.90;;;;;;5092186;28;20194;-76
2023/04/06 07:23:12;;;;;;;10.77;9.02;;;10.70;99.90;;;;;;5075459;28;20217;-75
2023/04/06 07:25:41;;;;;;;8.57;7.75;;;10.80;99.90;;;;;;5076752;28;20218;-76
2023/04/06 07:28:08;;;;;;;11.25;9.00;;;11.00;99.90;;;;;;5082104;28;20201;-76
2023/04/06 07:30:36;;;;;;;9.65;8.30;;;10.90;99.90;;;;;;5080638;28;20251;-76
2023/04/06 07:33:03;;;;;;;9.27;8.48;;;10.90;99.90;;;;;;5077817;28;20225;-75
2023/04/06 07:35:30;;;;;;;10.98;8.77;;;10.80;99.90;;;;;;5082571;28;20292;-75
2023/04/06 07:37:57;;;;;;;9.95;8.98;;;10.90;99.90;;;;;;5082186;28;20854;-74
2023/04/06 07:40:25;;;;;;;9.30;7.97;;;11.00;99.90;;;;;;5079309;28;20258;-75
2023/04/06 07:42:54;;;;;;;9.27;8.27;;;11.50;99.90;;;;;;5080783;28;20217;-75
2023/04/06 07:45:21;;;;;;;8.68;7.88;;;11.70;98.40;;;;;;5081944;28;20303;-76
2023/04/06 07:47:49;;;;;;;8.77;7.97;;;11.70;97.80;;;;;;5074739;28;20198;-76
2023/04/06 07:50:16;;;;;;;9.57;7.97;;;11.80;97.90;;;;;;5080665;28;20225;-76
2023/04/06 07:52:44;;;;;;;9.20;8.23;;;11.90;97.90;;;;;;5079620;28;21090;-75
2023/04/06 07:55:11;;;;;;;8.93;8.02;;;12.00;97.70;;;;;;5085748;28;20197;-74
2023/04/06 07:57:38;;;;;;;11.73;8.93;;;12.10;97.30;;;;;;5081634;28;20221;-76
2023/04/06 08:00:09;;;;;;;9.73;8.75;;;12.10;97.50;;;;;;5082074;28;20227;-75
2023/04/06 08:02:36;;;;;;;8.98;8.07;;;12.00;97.90;;;;;;5081080;28;20249;-75
2023/04/06 08:05:03;;;;;;;9.05;8.15;;;11.80;97.90;;;;;;5080747;28;20463;-75
2023/04/06 08:07:30;;;;;;;8.70;7.75;;;11.90;98.00;;;;;;5077102;28;20206;-76
2023/04/06 08:09:57;;;;;;;10.18;7.60;;;12.20;97.90;;;;;;5082468;28;20256;-75
2023/04/06 08:12:24;;;;;;;9.10;8.18;;;12.40;97.70;;;;;;5083186;28;20293;-76
2023/04/06 08:14:51;;;;;;;10.15;7.65;;;12.70;97.20;;;;;;5082165;28;20267;-76
2023/04/06 08:17:19;;;;;;;8.10;7.30;;;12.60;96.20;;;;;;5083217;28;20467;-73
2023/04/06 08:19:47;;;;;;;9.70;8.27;;;12.90;96.60;;;;;;5079888;28;22140;-73
2023/04/06 08:22:14;;;;;;;11.63;8.60;;;13.30;95.10;;;;;;5082497;28;20225;-73
2023/04/06 08:24:41;;;;;;;9.88;7.55;;;13.20;94.70;;;;;;5083971;28;20262;-76
2023/04/06 08:27:08;;;;;;;10.07;8.90;;;13.10;94.90;;;;;;5084045;28;20221;-73
2023/04/06 08:29:35;;;;;;;9.35;8.32;;;13.10;94.50;;;;;;5080208;28;20197;-74
2023/04/06 08:32:04;;;;;;;11.73;8.18;;;13.40;94.30;;;;;;5083818;28;20479;-74
2023/04/06 08:34:33;;;;;;;9.45;7.72;;;13.40;94.50;;;;;;5082575;28;20205;-74
2023/04/06 08:37:00;;;;;;;9.00;8.10;;;13.40;94.40;;;;;;5085085;28;20252;-75
2023/04/06 08:39:27;;;;;;;9.98;7.38;;;13.20;94.40;;;;;;5083116;28;20689;-74
2023/04/06 08:41:56;;;;;;;8.85;7.97;;;13.00;94.50;;;;;;5085132;28;20280;-72
2023/04/06 08:44:24;;;;;;;11.68;8.10;;;13.10;94.70;;;;;;5082726;28;20199;-73
2023/04/06 08:46:52;;;;;;;8.80;7.90;;;13.20;94.50;;;;;;5091240;28;20216;-76
2023/04/06 08:49:20;;;;;;;9.98;9.05;;;13.30;93.90;;;;;;5079167;28;20206;-75
2023/04/06 08:51:50;;;;;;;8.52;7.72;;;13.70;93.90;;;;;;5080529;28;20217;-73
2023/04/06 08:54:17;;;;;;;9.00;8.10;;;13.70;92.80;;;;;;5076703;28;20210;-77
2023/04/06 08:56:45;;;;;;;9.80;8.43;;;13.90;92.70;;;;;;5078402;22;20237;-69
2023/04/06 08:59:13;;;;;;;10.98;8.90;;;14.40;92.40;;;;;;5064413;28;20219;-69
2023/04/06 09:01:42;;;;;;;10.48;8.80;;;14.20;91.90;;;;;;5059372;28;20305;-67
2023/04/06 09:04:10;;;;;;;8.98;6.65;;;13.90;92.00;;;;;;5058938;28;20686;-67
2023/04/06 09:06:38;;;;;;;9.13;8.13;;;13.80;91.80;;;;;;5062239;28;20241;-67
2023/04/06 09:09:07;;;;;;;9.27;8.30;;;13.90;91.60;;;;;;5059263;28;20249;-67
2023/04/06 09:11:48;;;;;;;9.23;7.85;;;14.00;91.90;;;;;;5058625;28;20207;-67
2023/04/06 09:14:16;;;;;;;11.13;9.48;;;14.20;91.70;;;;;;5043339;28;20307;-66
2023/04/06 09:16:45;;;;;;;8.52;7.75;;;14.10;91.10;;;;;;5061385;28;20201;-67
2023/04/06 09:19:13;;;;;;;8.77;7.90;;;14.00;90.90;;;;;;5062813;28;20655;-68
2023/04/06 09:21:40;;;;;;;9.77;7.80;;;13.90;90.60;;;;;;5058532;28;20203;-67
2023/04/06 09:24:10;;;;;;;8.32;7.55;;;13.90;90.70;;;;;;5058550;28;20289;-67
2023/04/06 09:26:56;;;;;;;9.73;8.10;;;14.10;91.00;;;;;;5043386;28;20227;-66
2023/04/06 09:29:25;;;;;;;8.55;7.75;;;14.30;90.00;;;;;;5061412;28;20218;-67
2023/04/06 09:31:53;;;;;;;7.53;6.82;;;14.10;87.50;;;;;;5060201;28;20257;-67
2023/04/06 09:34:24;;;;;;;8.85;7.65;;;14.10;88.40;;;;;;5059186;28;20202;-67
2023/04/06 09:36:52;;;;;;;8.20;7.15;;;14.40;89.50;;;;;;5083475;28;20201;-67
2023/04/06 09:39:24;;;;;;;9.48;7.68;;;14.70;87.70;;;;;;5059747;28;20225;-67
2023/04/06 09:41:55;;;;;;;11.05;8.85;;;14.70;87.50;;;;;;5060445;28;20222;-67
2023/04/06 09:44:23;;;;;;;8.70;7.80;;;14.70;86.60;;;;;;5060765;28;20214;-66
2023/04/06 09:46:54;;;;;;;8.20;7.40;;;14.80;87.20;;;;;;5063087;28;20214;-68
2023/04/06 09:49:22;;;;;;;7.15;6.55;;;14.70;85.60;;;;;;5044829;28;20833;-68
2023/04/06 09:51:54;;;;;;;8.80;7.38;;;14.80;86.20;;;;;;5065368;28;20202;-67
2023/04/06 09:54:28;;;;;;;7.10;6.40;;;14.80;84.70;;;;;;5062979;28;20195;-68
2023/04/06 09:56:59;;;;;;;7.53;6.25;;;14.80;84.70;;;;;;5059756;28;20198;-67
2023/04/06 09:59:36;;;;;;;7.50;6.50;;;14.90;84.40;;;;;;5059665;28;20222;-68
2023/04/06 10:02:06;;;;;;;7.35;6.53;;;14.90;84.30;;;;;;5060095;28;20280;-68
2023/04/06 10:04:43;;;;;;;8.65;6.43;;;14.70;82.20;;;;;;5061845;28;20198;-69
2023/04/06 10:07:13;;;;;;;7.28;6.07;;;15.20;84.00;;;;;;5060129;28;20653;-68
2023/04/06 10:09:44;;;;;;;6.72;6.13;;;15.50;81.20;;;;;;5044036;28;20202;-69
2023/04/06 10:12:11;;;;;;;6.10;5.50;;;15.80;80.50;;;;;;5060374;28;20555;-66
2023/04/06 10:14:40;;;;;;;6.30;5.70;;;15.70;79.40;;;;;;5063181;28;20256;-69
2023/04/06 10:17:08;;;;;;;6.00;5.43;;;15.70;78.40;;;;;;5056072;28;20213;-69
2023/04/06 10:19:46;;;;;;;5.85;5.25;;;15.70;78.40;;;;;;5060794;28;20276;-69
2023/04/06 10:22:17;;;;;;;6.50;5.38;;;15.80;76.40;;;;;;5041549;28;20198;-69
2023/04/06 10:24:46;;;;;;;6.85;5.43;;;15.90;77.40;;;;;;5063264;28;20197;-69
2023/04/06 10:27:13;;;;;;;5.28;4.80;;;16.10;77.30;;;;;;5059061;28;20213;-68
2023/04/06 10:29:48;;;;;;;4.78;4.35;;;16.20;75.90;;;;;;5039857;28;20206;-69
2023/04/06 10:32:15;;;;;;;6.50;5.00;;;16.60;78.70;;;;;;5058768;28;20198;-69
2023/04/06 10:34:43;;;;;;;6.13;5.50;;;16.70;76.10;;;;;;5040242;28;20662;-69
2023/04/06 10:37:14;;;;;;;4.72;4.32;;;16.80;74.70;;;;;;5063333;28;20279;-68
2023/04/06 10:39:57;;;;;;;4.90;4.40;;;16.30;69.70;;;;;;5060032;28;20871;-68
2023/04/06 10:42:26;;;;;;;4.97;4.45;;;16.20;69.90;;;;;;5057439;28;20198;-69
2023/04/06 10:44:53;;;;;;;4.53;4.13;;;16.00;67.50;;;;;;5055857;28;20191;-68
2023/04/06 10:47:20;;;;;;;5.35;4.85;;;15.90;70.00;;;;;;5060267;28;20256;-67
2023/04/06 10:49:47;;;;;;;5.20;4.70;;;15.90;69.90;;;;;;5066940;28;20630;-68
2023/04/06 10:52:14;;;;;;;9.60;4.32;;;15.90;70.00;;;;;;5053059;28;20252;-69
2023/04/06 10:54:44;;;;;;;3.67;3.42;;;16.20;71.60;;;;;;5060780;28;20652;-69
2023/04/06 10:57:16;;;;;;;5.28;3.53;;;16.30;68.90;;;;;;5058923;28;20317;-70
2023/04/06 10:59:45;;;;;;;3.85;3.55;;;16.20;65.40;;;;;;5045349;28;20189;-69
2023/04/06 11:02:21;;;;;;;3.97;3.58;;;16.00;67.50;;;;;;5060016;28;20195;-68
2023/04/06 11:04:57;;;;;;;3.60;3.30;;;16.00;63.90;;;;;;5041646;28;20212;-68
2023/04/06 11:07:25;;;;;;;4.03;3.08;;;16.20;64.70;;;;;;5059440;28;20265;-66
2023/04/06 11:09:53;;;;;;;3.42;3.13;;;16.20;64.50;;;;;;5055487;28;20240;-66
2023/04/06 11:12:30;;;;;;;3.50;3.20;;;16.10;62.60;;;;;;5064681;28;20194;-68
2023/04/06 11:15:02;;;;;;;3.13;2.92;;;16.20;60.00;;;;;;5061019;28;20328;-67
2023/04/06 11:17:31;;;;;;;3.30;2.53;;;16.30;62.20;;;;;;5059339;28;20305;-67
2023/04/06 11:19:58;;;;;;;3.03;2.75;;;16.40;62.20;;;;;;5061614;28;20198;-68
2023/04/06 11:22:25;;;;;;;3.97;3.30;;;16.50;61.10;;;;;;5059031;28;20210;-67
2023/04/06 11:24:53;;;;;;;3.60;3.30;;;16.40;58.90;;;;;;5057151;28;20271;-68
2023/04/06 11:27:21;;;;;;;2.97;2.78;;;16.50;59.60;;;;;;5059843;28;20223;-68
2023/04/06 11:29:51;;;;;;;3.33;3.03;;;16.60;61.30;;;;;;5051905;28;20676;-69
2023/04/06 11:32:24;;;;;;;3.63;3.33;;;16.80;60.80;;;;;;5053796;28;20283;-67
2023/04/06 11:34:51;;;;;;;6.40;3.58;;;17.00;61.30;;;;;;5056458;28;20202;-68
2023/04/06 11:37:18;;;;;;;3.47;3.03;;;17.00;58.80;;;;;;5043123;28;20248;-69
2023/04/06 11:39:50;;;;;;;3.17;2.97;;;17.00;59.80;;;;;;5057022;28;20198;-69
2023/04/06 11:42:25;;;;;;;8.77;3.42;;;17.20;60.70;;;;;;5057233;28;20975;-71
2023/04/06 11:44:56;;;;;;;4.88;3.40;;;17.00;58.00;;;;;;5055747;28;20271;-69
2023/04/06 11:47:30;;;;;;;3.95;3.60;;;16.90;59.70;;;;;;5058846;28;20210;-69
2023/04/06 11:50:06;;;;;;;6.72;3.63;;;16.80;59.30;;;;;;5054394;28;20202;-68
2023/04/06 11:52:33;;;;;;;4.45;4.00;;;16.90;58.90;;;;;;5058132;28;20252;-68
2023/04/06 11:55:12;;;;;;;3.30;3.00;;;16.80;59.70;;;;;;5060115;28;20210;-69
2023/04/06 11:57:39;;;;;;;3.80;3.50;;;17.10;60.40;;;;;;5060283;28;20226;-70
2023/04/06 12:00:10;;;;;;;3.72;3.42;;;17.00;60.00;;;;;;5043418;28;20248;-69
2023/04/06 12:02:38;;;;;;;4.22;3.83;;;16.90;59.20;;;;;;5062221;28;20231;-69
2023/04/06 12:05:06;;;;;;;3.58;3.30;;;17.10;59.70;;;;;;5078762;28;20183;-68
2023/04/06 12:07:36;;;;;;;3.58;3.28;;;17.30;59.60;;;;;;5047772;28;20584;-69
2023/04/06 12:10:04;;;;;;;6.47;3.40;;;17.30;59.10;;;;;;5060104;28;20210;-70
2023/04/06 12:12:31;;;;;;;3.95;3.33;;;17.30;57.30;;;;;;5057268;28;20286;-70
2023/04/06 12:14:59;;;;;;;3.63;3.33;;;17.40;56.80;;;;;;5062254;28;20206;-70
2023/04/06 12:17:28;;;;;;;3.42;3.13;;;17.20;56.90;;;;;;5057973;28;20622;-69
2023/04/06 12:19:55;;;;;;;3.40;3.20;;;17.20;58.30;;;;;;5045468;28;20278;-70
2023/04/06 12:22:23;;;;;;;4.15;3.55;;;17.20;57.50;;;;;;5060986;28;20199;-70
2023/04/06 12:24:50;;;;;;;4.15;3.83;;;17.40;58.50;;;;;;5064409;28;20205;-70
2023/04/06 12:27:17;;;;;;;3.83;3.53;;;17.40;57.20;;;;;;5060996;28;20217;-70
2023/04/06 12:29:44;;;;;;;3.30;3.00;;;17.60;58.20;;;;;;5062564;28;20198;-70
2023/04/06 12:32:11;;;;;;;3.47;3.17;;;18.20;58.50;;;;;;5045858;28;20255;-68
2023/04/06 12:34:41;;;;;;;3.70;3.40;;;18.30;57.60;;;;;;5059041;28;20206;-71
2023/04/06 12:37:08;;;;;;;4.20;3.67;;;18.30;56.70;;;;;;5055098;28;20194;-68
2023/04/06 12:39:36;;;;;;;3.25;2.90;;;18.40;57.00;;;;;;5059966;28;20198;-71
2023/04/06 12:42:04;;;;;;;5.13;3.17;;;18.10;55.50;;;;;;5061770;28;20198;-70
2023/04/06 12:44:31;;;;;;;3.50;3.20;;;17.90;57.70;;;;;;5055284;28;20209;-70
2023/04/06 12:46:59;;;;;;;3.00;2.80;;;18.00;54.70;;;;;;5043561;28;20246;-70
2023/04/06 12:49:27;;;;;;;2.90;2.70;;;17.80;54.20;;;;;;5041934;28;20226;-70
2023/04/06 12:51:56;;;;;;;3.00;2.80;;;17.80;57.10;;;;;;5059794;28;20259;-70
2023/04/06 12:54:23;;;;;;;2.65;2.42;;;18.10;55.50;;;;;;5058381;28;20207;-70